Orbital elements of FENGYUN 1C DEB
| Launched | 9 May 1999 |
| Flight ended | – |
| Launch site | Taiyuan Space Center, PRC |
| Owner | People's Republic of China |
| NORAD ID | 30660 |
| Date fetched |
Epoch osculation |
Inc. [°] |
Ecc. | RA asc node [hr] |
Arg Peri. [°] |
Mean anom [°] |
Mean motion [rev/day] |
Abs. mag |
| Date fetched |
Epoch osculation |
Inc. [°] |
Ecc. | RA asc node [hr] |
Arg Peri. [°] |
Mean anom [°] |
Mean motion [rev/day] |
Abs. mag |
| 2026 May 03 17:57 | 2026 Apr 30 01:05:31 | 98.1367 | 0.01313 | 15.0211 | 241.4077 | 296.0058 | 14.89869 | – |
| 2026 May 02 17:57 | 2026 Apr 30 01:05:31 | 98.1367 | 0.01313 | 15.0211 | 241.4077 | 296.0058 | 14.89869 | – |
| 2026 May 01 17:56 | 2026 Apr 30 01:05:31 | 98.1367 | 0.01313 | 15.0211 | 241.4077 | 296.0058 | 14.89869 | – |
| 2026 Apr 30 17:56 | 2026 Apr 30 01:05:31 | 98.1367 | 0.01313 | 15.0211 | 241.4077 | 296.0058 | 14.89869 | – |
| 2026 Apr 29 17:57 | 2026 Apr 24 05:48:15 | 98.1357 | 0.01310 | 14.6229 | 260.5229 | 296.0058 | 14.89869 | – |
| 2026 Apr 28 17:56 | 2026 Apr 24 05:48:15 | 98.1357 | 0.01310 | 14.6229 | 260.5229 | 296.0058 | 14.89869 | – |
| 2026 Apr 27 17:58 | 2026 Apr 24 05:48:15 | 98.1357 | 0.01310 | 14.6229 | 260.5229 | 296.0058 | 14.89869 | – |
| 2026 Apr 26 17:58 | 2026 Apr 24 05:48:15 | 98.1357 | 0.01310 | 14.6229 | 260.5229 | 296.0058 | 14.89869 | – |
| 2026 Apr 25 17:58 | 2026 Apr 24 05:48:15 | 98.1357 | 0.01310 | 14.6229 | 260.5229 | 296.0058 | 14.89869 | – |
| 2026 Apr 24 17:59 | 2026 Apr 24 05:48:15 | 98.1357 | 0.01310 | 14.6229 | 260.5229 | 296.0058 | 14.89869 | – |
| 2026 Apr 23 17:57 | 2026 Apr 19 12:53:37 | 98.1359 | 0.01311 | 14.3001 | 276.1149 | 296.0058 | 14.89869 | – |
| 2026 Apr 22 17:57 | 2026 Apr 19 12:53:37 | 98.1359 | 0.01311 | 14.3001 | 276.1149 | 296.0058 | 14.89869 | – |
| 2026 Apr 21 17:57 | 2026 Apr 19 12:53:37 | 98.1359 | 0.01311 | 14.3001 | 276.1149 | 296.0058 | 14.89869 | – |
| 2026 Apr 20 17:57 | 2026 Apr 19 12:53:37 | 98.1359 | 0.01311 | 14.3001 | 276.1149 | 296.0058 | 14.89869 | – |
| 2026 Apr 19 17:58 | 2026 Apr 19 12:53:37 | 98.1359 | 0.01311 | 14.3001 | 276.1149 | 296.0058 | 14.89869 | – |
| 2026 Apr 18 17:56 | 2026 Apr 13 05:25:07 | 98.1346 | 0.01313 | 13.8671 | 296.9708 | 296.0058 | 14.89869 | – |
| 2026 Apr 16 17:57 | 2026 Apr 13 05:25:07 | 98.1346 | 0.01313 | 13.8671 | 296.9708 | 296.0058 | 14.89869 | – |
| 2026 Apr 14 17:57 | 2026 Apr 13 05:25:07 | 98.1346 | 0.01313 | 13.8671 | 296.9708 | 296.0058 | 14.89869 | – |
| 2026 Apr 13 17:57 | 2026 Apr 13 05:25:07 | 98.1346 | 0.01313 | 13.8671 | 296.9708 | 296.0058 | 14.89869 | – |
| 2026 Apr 12 17:57 | 2026 Apr 08 06:08:27 | 98.1343 | 0.01315 | 13.5262 | 313.4407 | 296.0058 | 14.89869 | – |
| 2026 Apr 11 17:57 | 2026 Apr 08 06:08:27 | 98.1343 | 0.01315 | 13.5262 | 313.4407 | 296.0058 | 14.89869 | – |
| 2026 Apr 10 17:58 | 2026 Apr 08 06:08:27 | 98.1343 | 0.01315 | 13.5262 | 313.4407 | 296.0058 | 14.89869 | – |
| 2026 Apr 09 18:01 | 2026 Apr 08 06:08:27 | 98.1343 | 0.01315 | 13.5262 | 313.4407 | 296.0058 | 14.89869 | – |
| 2026 Apr 08 17:57 | 2026 Apr 08 06:08:27 | 98.1343 | 0.01315 | 13.5262 | 313.4407 | 296.0058 | 14.89869 | – |
| 2026 Apr 07 17:57 | 2026 Apr 01 06:35:52 | 98.1347 | 0.01321 | 13.0474 | 336.4313 | 296.0058 | 14.89869 | – |
| 2026 Apr 06 17:57 | 2026 Apr 01 06:35:52 | 98.1347 | 0.01321 | 13.0474 | 336.4313 | 296.0058 | 14.89869 | – |